sensor_id;sensor_type;location;lat;lon;timestamp;P1;P2;P0
66155;PMS5003;52957;50.848;20.656;2022-08-01T00:00:15;22;19;11
66155;PMS5003;52957;50.848;20.656;2022-08-01T00:07:07;24;23;12
66155;PMS5003;52957;50.848;20.656;2022-08-01T00:14:03;24;23;12
66155;PMS5003;52957;50.848;20.656;2022-08-01T00:21:08;24;23;12
66155;PMS5003;52957;50.848;20.656;2022-08-01T00:28:24;24;23;12
66155;PMS5003;52957;50.848;20.656;2022-08-01T00:35:18;32;29;15
66155;PMS5003;52957;50.848;20.656;2022-08-01T00:42:13;32;29;15
66155;PMS5003;52957;50.848;20.656;2022-08-01T00:49:04;32;29;15
66155;PMS5003;52957;50.848;20.656;2022-08-01T00:56:03;32;29;15
66155;PMS5003;52957;50.848;20.656;2022-08-01T01:00:06;32;29;15
66155;PMS5003;52957;50.848;20.656;2022-08-01T01:07:12;27;25;14
66155;PMS5003;52957;50.848;20.656;2022-08-01T01:14:51;27;25;14
66155;PMS5003;52957;50.848;20.656;2022-08-01T01:28:34;27;25;14
66155;PMS5003;52957;50.848;20.656;2022-08-01T01:35:52;24;22;13
66155;PMS5003;52957;50.848;20.656;2022-08-01T01:42:02;24;22;13
66155;PMS5003;52957;50.848;20.656;2022-08-01T01:49:02;24;22;13
66155;PMS5003;52957;50.848;20.656;2022-08-01T01:56:27;24;22;13
66155;PMS5003;52957;50.848;20.656;2022-08-01T02:00:29;24;22;13
66155;PMS5003;52957;50.848;20.656;2022-08-01T02:07:26;31;29;16
66155;PMS5003;52957;50.848;20.656;2022-08-01T02:14:18;31;29;16
66155;PMS5003;52957;50.848;20.656;2022-08-01T02:21:09;31;29;16
66155;PMS5003;52957;50.848;20.656;2022-08-01T02:28:29;31;29;16
66155;PMS5003;52957;50.848;20.656;2022-08-01T02:35:02;34;29;15
66155;PMS5003;52957;50.848;20.656;2022-08-01T02:42:18;34;29;15
66155;PMS5003;52957;50.848;20.656;2022-08-01T02:49:02;34;29;15
66155;PMS5003;52957;50.848;20.656;2022-08-01T02:56:02;34;29;15
66155;PMS5003;52957;50.848;20.656;2022-08-01T03:00:07;34;29;15
66155;PMS5003;52957;50.848;20.656;2022-08-01T03:07:16;31;29;17
66155;PMS5003;52957;50.848;20.656;2022-08-01T03:14:20;31;29;17
66155;PMS5003;52957;50.848;20.656;2022-08-01T03:21:12;31;29;17
66155;PMS5003;52957;50.848;20.656;2022-08-01T03:28:20;31;29;17
66155;PMS5003;52957;50.848;20.656;2022-08-01T03:35:25;30;27;12
66155;PMS5003;52957;50.848;20.656;2022-08-01T03:42:52;30;27;12
66155;PMS5003;52957;50.848;20.656;2022-08-01T03:49:22;30;27;12
66155;PMS5003;52957;50.848;20.656;2022-08-01T03:56:04;30;27;12
66155;PMS5003;52957;50.848;20.656;2022-08-01T04:00:20;30;27;12
66155;PMS5003;52957;50.848;20.656;2022-08-01T04:07:31;24;23;13
66155;PMS5003;52957;50.848;20.656;2022-08-01T04:14:02;24;23;13
66155;PMS5003;52957;50.848;20.656;2022-08-01T04:21:25;24;23;13
66155;PMS5003;52957;50.848;20.656;2022-08-01T04:28:17;24;23;13
66155;PMS5003;52957;50.848;20.656;2022-08-01T04:35:22;26;25;15
66155;PMS5003;52957;50.848;20.656;2022-08-01T04:42:08;26;25;15
66155;PMS5003;52957;50.848;20.656;2022-08-01T04:49:21;26;25;15
66155;PMS5003;52957;50.848;20.656;2022-08-01T04:56:14;26;25;15
66155;PMS5003;52957;50.848;20.656;2022-08-01T05:00:11;26;25;15
66155;PMS5003;52957;50.848;20.656;2022-08-01T05:07:18;28;26;15
66155;PMS5003;52957;50.848;20.656;2022-08-01T05:14:03;28;26;15
66155;PMS5003;52957;50.848;20.656;2022-08-01T05:21:19;28;26;15
66155;PMS5003;52957;50.848;20.656;2022-08-01T05:28:04;28;26;15
66155;PMS5003;52957;50.848;20.656;2022-08-01T05:35:09;27;25;14
66155;PMS5003;52957;50.848;20.656;2022-08-01T05:42:16;27;25;14
66155;PMS5003;52957;50.848;20.656;2022-08-01T05:49:04;27;25;14
66155;PMS5003;52957;50.848;20.656;2022-08-01T05:56:21;27;25;14
66155;PMS5003;52957;50.848;20.656;2022-08-01T06:00:18;27;25;14
66155;PMS5003;52957;50.848;20.656;2022-08-01T06:07:05;27;27;15
66155;PMS5003;52957;50.848;20.656;2022-08-01T06:14:18;27;27;15
66155;PMS5003;52957;50.848;20.656;2022-08-01T06:21:16;27;27;15
66155;PMS5003;52957;50.848;20.656;2022-08-01T06:28:16;27;27;15
66155;PMS5003;52957;50.848;20.656;2022-08-01T06:35:15;21;20;13
66155;PMS5003;52957;50.848;20.656;2022-08-01T06:42:18;21;20;13
66155;PMS5003;52957;50.848;20.656;2022-08-01T06:49:23;21;20;13
66155;PMS5003;52957;50.848;20.656;2022-08-01T06:56:05;21;20;13
66155;PMS5003;52957;50.848;20.656;2022-08-01T07:00:12;21;20;13
66155;PMS5003;52957;50.848;20.656;2022-08-01T07:14:15;19;18;13
66155;PMS5003;52957;50.848;20.656;2022-08-01T07:21:17;19;18;13
66155;PMS5003;52957;50.848;20.656;2022-08-01T07:28:03;19;18;13
66155;PMS5003;52957;50.848;20.656;2022-08-01T07:42:16;19;19;12
66155;PMS5003;52957;50.848;20.656;2022-08-01T07:49:02;19;19;12
66155;PMS5003;52957;50.848;20.656;2022-08-01T07:56:19;19;19;12
66155;PMS5003;52957;50.848;20.656;2022-08-01T08:00:16;19;19;12
66155;PMS5003;52957;50.848;20.656;2022-08-01T08:14:02;15;15;11
66155;PMS5003;52957;50.848;20.656;2022-08-01T08:21:16;15;15;11
66155;PMS5003;52957;50.848;20.656;2022-08-01T08:28:17;15;15;11
66155;PMS5003;52957;50.848;20.656;2022-08-01T08:35:05;15;15;11
66155;PMS5003;52957;50.848;20.656;2022-08-01T08:42:06;13;13;9
66155;PMS5003;52957;50.848;20.656;2022-08-01T08:49:19;13;13;9
66155;PMS5003;52957;50.848;20.656;2022-08-01T08:56:02;13;13;9
66155;PMS5003;52957;50.848;20.656;2022-08-01T09:00:03;13;13;9
66155;PMS5003;52957;50.848;20.656;2022-08-01T09:14:44;15;14;8
66155;PMS5003;52957;50.848;20.656;2022-08-01T09:21:15;15;14;8
66155;PMS5003;52957;50.848;20.656;2022-08-01T09:28:06;15;14;8
66155;PMS5003;52957;50.848;20.656;2022-08-01T09:35:46;15;14;8
66155;PMS5003;52957;50.848;20.656;2022-08-01T09:42:21;9;9;6
66155;PMS5003;52957;50.848;20.656;2022-08-01T09:49:16;9;9;6
66155;PMS5003;52957;50.848;20.656;2022-08-01T09:56:08;9;9;6
66155;PMS5003;52957;50.848;20.656;2022-08-01T10:00:01;9;9;6
66155;PMS5003;52957;50.848;20.656;2022-08-01T10:14:08;13;13;9
66155;PMS5003;52957;50.848;20.656;2022-08-01T10:21:04;13;13;9
66155;PMS5003;52957;50.848;20.656;2022-08-01T10:28:30;13;13;9
66155;PMS5003;52957;50.848;20.656;2022-08-01T10:35:14;13;13;9
66155;PMS5003;52957;50.848;20.656;2022-08-01T10:42:23;10;10;8
66155;PMS5003;52957;50.848;20.656;2022-08-01T10:49:39;10;10;8
66155;PMS5003;52957;50.848;20.656;2022-08-01T10:56:04;10;10;8
66155;PMS5003;52957;50.848;20.656;2022-08-01T11:00:18;10;10;8
66155;PMS5003;52957;50.848;20.656;2022-08-01T11:14:25;10;10;9
66155;PMS5003;52957;50.848;20.656;2022-08-01T11:21:04;10;10;9
66155;PMS5003;52957;50.848;20.656;2022-08-01T11:28:36;10;10;9
66155;PMS5003;52957;50.848;20.656;2022-08-01T11:35:16;10;10;9
66155;PMS5003;52957;50.848;20.656;2022-08-01T11:42:18;10;10;6
66155;PMS5003;52957;50.848;20.656;2022-08-01T11:56:18;10;10;6
66155;PMS5003;52957;50.848;20.656;2022-08-01T12:00:20;10;10;6
66155;PMS5003;52957;50.848;20.656;2022-08-01T12:07:33;10;10;6
66155;PMS5003;52957;50.848;20.656;2022-08-01T12:14:21;9;9;7
66155;PMS5003;52957;50.848;20.656;2022-08-01T12:21:19;9;9;7
66155;PMS5003;52957;50.848;20.656;2022-08-01T12:28:13;9;9;7
66155;PMS5003;52957;50.848;20.656;2022-08-01T12:35:33;9;9;7
66155;PMS5003;52957;50.848;20.656;2022-08-01T12:42:06;11;11;8
66155;PMS5003;52957;50.848;20.656;2022-08-01T12:49:19;11;11;8
66155;PMS5003;52957;50.848;20.656;2022-08-01T12:56:02;11;11;8
66155;PMS5003;52957;50.848;20.656;2022-08-01T13:00:28;11;11;8
66155;PMS5003;52957;50.848;20.656;2022-08-01T13:07:17;11;11;8
66155;PMS5003;52957;50.848;20.656;2022-08-01T13:14:02;11;11;8
66155;PMS5003;52957;50.848;20.656;2022-08-01T13:21:37;11;11;8
66155;PMS5003;52957;50.848;20.656;2022-08-01T13:28:39;11;11;8
66155;PMS5003;52957;50.848;20.656;2022-08-01T13:35:02;11;11;8
66155;PMS5003;52957;50.848;20.656;2022-08-01T13:49:19;13;12;8
66155;PMS5003;52957;50.848;20.656;2022-08-01T13:56:03;13;12;8
66155;PMS5003;52957;50.848;20.656;2022-08-01T14:00:17;13;12;8
66155;PMS5003;52957;50.848;20.656;2022-08-01T14:07:16;13;12;8
66155;PMS5003;52957;50.848;20.656;2022-08-01T14:21:04;14;14;10
66155;PMS5003;52957;50.848;20.656;2022-08-01T14:28:06;14;14;10
66155;PMS5003;52957;50.848;20.656;2022-08-01T14:35:12;14;14;10
66155;PMS5003;52957;50.848;20.656;2022-08-01T14:49:02;16;16;12
66155;PMS5003;52957;50.848;20.656;2022-08-01T14:56:20;16;16;12
66155;PMS5003;52957;50.848;20.656;2022-08-01T15:00:19;16;16;12
66155;PMS5003;52957;50.848;20.656;2022-08-01T15:07:01;16;16;12
66155;PMS5003;52957;50.848;20.656;2022-08-01T15:21:16;9;9;6
66155;PMS5003;52957;50.848;20.656;2022-08-01T15:28:16;9;9;6
66155;PMS5003;52957;50.848;20.656;2022-08-01T15:35:16;9;9;6
66155;PMS5003;52957;50.848;20.656;2022-08-01T15:49:05;11;11;8
66155;PMS5003;52957;50.848;20.656;2022-08-01T15:56:18;11;11;8
66155;PMS5003;52957;50.848;20.656;2022-08-01T16:00:18;11;11;8
66155;PMS5003;52957;50.848;20.656;2022-08-01T16:07:03;11;11;8
66155;PMS5003;52957;50.848;20.656;2022-08-01T16:21:11;15;14;9
66155;PMS5003;52957;50.848;20.656;2022-08-01T16:28:19;15;14;9
66155;PMS5003;52957;50.848;20.656;2022-08-01T16:35:09;15;14;9
66155;PMS5003;52957;50.848;20.656;2022-08-01T16:49:35;24;23;14
66155;PMS5003;52957;50.848;20.656;2022-08-01T16:56:04;24;23;14
66155;PMS5003;52957;50.848;20.656;2022-08-01T17:00:01;24;23;14
66155;PMS5003;52957;50.848;20.656;2022-08-01T17:07:04;24;23;14
66155;PMS5003;52957;50.848;20.656;2022-08-01T17:21:06;22;21;11
66155;PMS5003;52957;50.848;20.656;2022-08-01T17:28:22;22;21;11
66155;PMS5003;52957;50.848;20.656;2022-08-01T17:35:20;22;21;11
66155;PMS5003;52957;50.848;20.656;2022-08-01T17:49:24;22;20;14
66155;PMS5003;52957;50.848;20.656;2022-08-01T17:56:03;22;20;14
66155;PMS5003;52957;50.848;20.656;2022-08-01T18:00:18;22;20;14
66155;PMS5003;52957;50.848;20.656;2022-08-01T18:07:15;22;20;14
66155;PMS5003;52957;50.848;20.656;2022-08-01T18:21:20;47;40;23
66155;PMS5003;52957;50.848;20.656;2022-08-01T18:28:15;47;40;23
66155;PMS5003;52957;50.848;20.656;2022-08-01T18:35:22;47;40;23
66155;PMS5003;52957;50.848;20.656;2022-08-01T18:49:04;21;20;14
66155;PMS5003;52957;50.848;20.656;2022-08-01T18:56:16;21;20;14
66155;PMS5003;52957;50.848;20.656;2022-08-01T19:00:02;21;20;14
66155;PMS5003;52957;50.848;20.656;2022-08-01T19:07:05;21;20;14
66155;PMS5003;52957;50.848;20.656;2022-08-01T19:21:20;39;35;22
66155;PMS5003;52957;50.848;20.656;2022-08-01T19:28:26;39;35;22
66155;PMS5003;52957;50.848;20.656;2022-08-01T19:35:16;39;35;22
66155;PMS5003;52957;50.848;20.656;2022-08-01T19:42:07;39;35;22
66155;PMS5003;52957;50.848;20.656;2022-08-01T19:49:02;80;69;43
66155;PMS5003;52957;50.848;20.656;2022-08-01T19:56:26;80;69;43
66155;PMS5003;52957;50.848;20.656;2022-08-01T20:00:02;80;69;43
66155;PMS5003;52957;50.848;20.656;2022-08-01T20:07:04;80;69;43
66155;PMS5003;52957;50.848;20.656;2022-08-01T20:21:05;38;34;22
66155;PMS5003;52957;50.848;20.656;2022-08-01T20:28:25;38;34;22
66155;PMS5003;52957;50.848;20.656;2022-08-01T20:35:04;38;34;22
66155;PMS5003;52957;50.848;20.656;2022-08-01T20:42:19;38;34;22
66155;PMS5003;52957;50.848;20.656;2022-08-01T20:49:02;35;30;20
66155;PMS5003;52957;50.848;20.656;2022-08-01T21:00:21;35;30;20
66155;PMS5003;52957;50.848;20.656;2022-08-01T21:07:32;35;30;20
66155;PMS5003;52957;50.848;20.656;2022-08-01T21:21:13;41;35;23
66155;PMS5003;52957;50.848;20.656;2022-08-01T21:28:24;41;35;23
66155;PMS5003;52957;50.848;20.656;2022-08-01T21:35:09;41;35;23
66155;PMS5003;52957;50.848;20.656;2022-08-01T21:42:17;41;35;23
66155;PMS5003;52957;50.848;20.656;2022-08-01T21:49:02;43;35;22
66155;PMS5003;52957;50.848;20.656;2022-08-01T21:56:43;43;35;22
66155;PMS5003;52957;50.848;20.656;2022-08-01T22:00:21;43;35;22
66155;PMS5003;52957;50.848;20.656;2022-08-01T22:07:04;43;35;22
66155;PMS5003;52957;50.848;20.656;2022-08-01T22:14:55;54;44;27
66155;PMS5003;52957;50.848;20.656;2022-08-01T22:21:04;54;44;27
66155;PMS5003;52957;50.848;20.656;2022-08-01T22:28:02;54;44;27
66155;PMS5003;52957;50.848;20.656;2022-08-01T22:35:20;41;36;24
66155;PMS5003;52957;50.848;20.656;2022-08-01T22:42:41;41;36;24
66155;PMS5003;52957;50.848;20.656;2022-08-01T22:49:50;41;36;24
66155;PMS5003;52957;50.848;20.656;2022-08-01T22:56:08;41;36;24
66155;PMS5003;52957;50.848;20.656;2022-08-01T23:07:10;46;39;23
66155;PMS5003;52957;50.848;20.656;2022-08-01T23:14:19;46;39;23
66155;PMS5003;52957;50.848;20.656;2022-08-01T23:21:02;46;39;23
66155;PMS5003;52957;50.848;20.656;2022-08-01T23:28:05;46;39;23
66155;PMS5003;52957;50.848;20.656;2022-08-01T23:35:20;44;37;22
66155;PMS5003;52957;50.848;20.656;2022-08-01T23:42:18;44;37;22
66155;PMS5003;52957;50.848;20.656;2022-08-01T23:49:18;44;37;22
66155;PMS5003;52957;50.848;20.656;2022-08-01T23:56:16;44;37;22
